Time;durP1;ratioP1;P1;durP2;ratioP2;P2;SDS_P1;SDS_P2;PMS_P1;PMS_P2;Temp;Humidity;BMP_temperature;BMP_pressure;BME280_temperature;BME280_humidity;BME280_pressure;Samples;Min_cycle;Max_cycle;Signal;HPM_P1;HPM_P2
2021/10/20 00:00:49;;;;;;;7.70;7.03;;;10.00;94.30;;;8.87;97.25;98274.78;5049474;28;20455;-80
2021/10/20 00:03:16;;;;;;;7.70;6.87;;;10.00;94.60;;;8.83;96.69;98273.53;5038884;28;20510;-79
2021/10/20 00:05:43;;;;;;;9.17;6.93;;;10.00;94.80;;;8.77;97.51;98265.22;5041496;28;20446;-79
2021/10/20 00:08:10;;;;;;;7.33;6.67;;;10.00;94.70;;;8.73;97.84;98263.97;5039510;28;20467;-79
2021/10/20 00:10:39;;;;;;;8.03;7.27;;;9.90;95.50;;;8.50;98.54;98267.72;5057086;28;20462;-79
2021/10/20 00:13:06;;;;;;;8.40;7.60;;;9.80;96.10;;;8.16;100.00;98245.06;5040076;28;20450;-79
2021/10/20 00:15:34;;;;;;;7.80;7.10;;;9.60;97.50;;;7.98;100.00;98213.25;5037910;28;21003;-79
2021/10/20 00:18:01;;;;;;;8.00;7.20;;;9.50;99.90;;;8.25;100.00;98261.06;5043160;28;20447;-80
2021/10/20 00:20:28;;;;;;;7.57;6.87;;;9.50;99.90;;;8.36;99.98;98268.63;5052537;28;20538;-79
2021/10/20 00:22:56;;;;;;;6.90;6.30;;;9.50;99.90;;;8.13;99.54;98221.25;5052945;28;20469;-80
2021/10/20 00:25:23;;;;;;;7.83;7.23;;;9.50;98.90;;;8.31;99.92;98268.38;5046757;28;20459;-79
2021/10/20 00:27:52;;;;;;;7.97;7.27;;;9.50;99.90;;;8.18;100.00;98263.69;5053207;28;20446;-80
2021/10/20 00:30:19;;;;;;;8.23;7.53;;;9.40;99.80;;;8.04;100.00;98249.31;5052525;28;20458;-79
2021/10/20 00:32:46;;;;;;;8.73;7.90;;;9.30;99.90;;;7.89;100.00;98241.31;5051205;28;20451;-79
2021/10/20 00:35:14;;;;;;;8.00;7.20;;;9.20;99.90;;;7.94;100.00;98250.44;5045056;28;20458;-79
2021/10/20 00:37:41;;;;;;;8.03;6.87;;;9.20;99.90;;;8.11;100.00;98250.19;5040573;28;20518;-79
2021/10/20 00:40:10;;;;;;;8.53;7.70;;;9.20;99.90;;;8.01;100.00;98249.69;5051558;28;20485;-80
2021/10/20 00:42:37;;;;;;;8.03;7.03;;;9.20;99.90;;;7.82;100.00;98251.16;5049077;28;20509;-80
2021/10/20 00:45:08;;;;;;;7.93;7.23;;;9.10;99.90;;;7.87;100.00;98260.34;5046928;28;20490;-80
2021/10/20 00:47:36;;;;;;;8.73;7.17;;;9.00;99.90;;;7.80;100.00;98249.50;5046291;28;20453;-80
2021/10/20 00:50:07;;;;;;;7.80;7.07;;;9.00;99.90;;;7.90;100.00;98243.00;5048595;28;20450;-80
2021/10/20 00:52:35;;;;;;;7.83;6.97;;;9.00;99.90;;;7.92;100.00;98244.44;5046616;28;20623;-80
2021/10/20 00:55:04;;;;;;;7.40;6.63;;;9.10;99.90;;;7.78;100.00;98234.56;5039434;28;20466;-80
2021/10/20 00:57:32;;;;;;;9.20;7.27;;;9.00;99.90;;;7.64;100.00;98239.81;5040876;28;20466;-79
2021/10/20 01:00:04;;;;;;;9.03;7.07;;;8.90;99.90;;;7.65;100.00;98228.03;5054022;28;20442;-80
2021/10/20 01:02:33;;;;;;;7.20;6.60;;;8.80;99.90;;;7.85;100.00;98235.50;5045672;28;20474;-81
2021/10/20 01:05:00;;;;;;;9.00;6.97;;;8.90;99.90;;;7.55;100.00;98191.72;5050215;28;20457;-81
2021/10/20 01:07:27;;;;;;;7.50;6.80;;;8.90;99.90;;;7.84;100.00;98217.69;5047907;28;20454;-81
2021/10/20 01:09:55;;;;;;;7.63;7.03;;;8.90;99.90;;;7.95;100.00;98213.63;5069212;28;20453;-82
2021/10/20 01:12:22;;;;;;;7.53;6.83;;;9.00;99.90;;;7.84;100.00;98179.19;5045939;28;20996;-82
2021/10/20 01:14:49;;;;;;;7.03;6.27;;;9.10;99.90;;;7.96;100.00;98201.00;5044113;28;20477;-81
2021/10/20 01:17:17;;;;;;;8.17;7.37;;;9.20;99.70;;;7.67;100.00;98167.88;5047931;28;20466;-82
2021/10/20 01:19:45;;;;;;;7.40;6.70;;;9.10;99.80;;;7.65;100.00;98163.50;5045921;28;20537;-79
2021/10/20 01:22:14;;;;;;;7.43;6.70;;;9.10;99.90;;;7.93;100.00;98197.66;5038930;28;20467;-80
2021/10/20 01:24:42;;;;;;;7.60;6.90;;;9.10;99.90;;;7.52;100.00;98139.19;5048185;28;20449;-80
2021/10/20 01:27:09;;;;;;;9.10;8.13;;;9.10;99.90;;;7.80;100.00;98187.63;5043246;28;20501;-79
2021/10/20 01:29:37;;;;;;;8.57;7.67;;;9.00;99.90;;;7.89;100.00;98188.34;5042106;28;20449;-79
2021/10/20 01:32:06;;;;;;;7.50;6.80;;;9.10;99.90;;;7.90;100.00;98175.72;5050185;28;20451;-80
2021/10/20 01:34:34;;;;;;;8.20;7.40;;;9.10;99.90;;;7.70;100.00;98130.66;5047713;28;21292;-79
2021/10/20 01:37:04;;;;;;;7.17;6.37;;;9.10;99.90;;;7.85;100.00;98144.03;5045080;28;20477;-80
2021/10/20 01:39:35;;;;;;;6.60;6.00;;;9.20;99.90;;;7.95;100.00;98154.44;5037556;28;20957;-81
2021/10/20 01:42:03;;;;;;;7.70;6.90;;;9.10;99.90;;;8.08;100.00;98159.94;5037956;28;20489;-81
2021/10/20 01:44:30;;;;;;;8.10;6.70;;;9.20;99.90;;;7.80;100.00;98108.78;5048073;28;20461;-81
2021/10/20 01:46:57;;;;;;;6.67;6.00;;;9.30;99.90;;;8.10;100.00;98157.03;5047025;28;20454;-80
2021/10/20 01:49:25;;;;;;;6.80;6.20;;;9.30;99.90;;;7.66;100.00;98064.84;5047126;28;20459;-79
2021/10/20 01:51:52;;;;;;;7.20;6.50;;;9.30;99.90;;;8.18;100.00;98138.03;5032281;28;20479;-80
2021/10/20 01:54:19;;;;;;;7.00;6.40;;;9.40;98.90;;;8.20;99.92;98135.97;5056359;28;20500;-78
2021/10/20 01:56:48;;;;;;;6.03;5.43;;;9.40;98.20;;;8.26;99.73;98133.53;5044464;28;20466;-81
2021/10/20 01:59:15;;;;;;;8.00;6.03;;;9.50;98.00;;;8.16;99.92;98120.41;5039196;28;20515;-79
2021/10/20 02:01:43;;;;;;;7.53;6.80;;;9.50;97.60;;;8.25;99.84;98130.00;5040113;28;20563;-79
2021/10/20 02:04:11;;;;;;;6.90;6.30;;;9.50;96.90;;;8.30;98.90;98121.34;5039189;28;20462;-79
2021/10/20 02:06:41;;;;;;;6.80;5.90;;;9.50;96.30;;;8.19;98.80;98096.66;5041815;28;20465;-80
2021/10/20 02:09:08;;;;;;;8.60;5.87;;;9.50;95.80;;;8.12;98.25;98089.56;5060675;28;20455;-80
2021/10/20 02:11:39;;;;;;;6.20;5.70;;;9.60;95.20;;;8.34;97.94;98109.16;5045246;28;20462;-80
2021/10/20 02:14:09;;;;;;;7.03;6.40;;;9.60;95.00;;;8.26;97.54;98101.22;5042415;28;20687;-80
2021/10/20 02:16:37;;;;;;;6.47;5.87;;;9.60;94.60;;;8.19;96.73;98096.66;5038593;28;20451;-80
2021/10/20 02:19:05;;;;;;;6.77;6.17;;;9.60;94.60;;;8.32;97.23;98116.59;5044155;28;20458;-80
2021/10/20 02:21:32;;;;;;;7.70;6.27;;;9.50;94.60;;;8.18;97.03;98086.06;5042141;28;20438;-80
2021/10/20 02:23:59;;;;;;;6.30;5.70;;;9.50;94.50;;;8.28;97.47;98109.97;5040015;28;20447;-81
2021/10/20 02:26:26;;;;;;;6.63;5.90;;;9.50;94.70;;;8.14;97.63;98103.66;5040594;28;20454;-79
2021/10/20 02:28:53;;;;;;;8.23;5.60;;;9.30;95.20;;;7.64;97.92;98050.75;5053808;28;20477;-79
2021/10/20 02:31:23;;;;;;;6.40;5.80;;;9.30;95.20;;;7.94;98.64;98086.34;5044158;28;20519;-80
2021/10/20 02:33:51;;;;;;;7.43;6.40;;;9.10;96.70;;;7.91;98.52;98100.19;5048885;28;21055;-81
2021/10/20 02:36:18;;;;;;;7.27;5.97;;;9.10;96.50;;;7.81;99.21;98094.34;5043826;28;20467;-79
2021/10/20 02:38:46;;;;;;;7.00;6.30;;;9.00;96.70;;;7.59;99.25;98055.91;5043908;28;20509;-81
2021/10/20 02:41:13;;;;;;;6.70;6.10;;;9.00;98.00;;;7.98;98.24;98089.47;5046433;28;20455;-81
2021/10/20 02:43:41;;;;;;;7.10;6.50;;;9.10;97.30;;;7.87;98.17;98082.78;5052925;28;20466;-80
2021/10/20 02:46:08;;;;;;;6.83;6.23;;;9.10;96.60;;;7.86;98.46;98097.25;5051111;28;20965;-81
2021/10/20 02:48:37;;;;;;;6.83;6.13;;;9.00;96.60;;;7.90;98.02;98077.00;5051965;28;20459;-80
2021/10/20 02:51:04;;;;;;;9.43;6.40;;;9.10;96.50;;;7.86;98.30;98070.38;5052574;28;20480;-80
2021/10/20 02:53:31;;;;;;;6.30;5.70;;;9.10;96.40;;;7.85;97.83;98075.94;5046970;28;20481;-80
2021/10/20 02:55:58;;;;;;;6.87;5.93;;;9.10;95.60;;;7.76;97.69;98059.97;5045623;28;21358;-80
2021/10/20 02:58:26;;;;;;;7.43;6.47;;;9.10;95.70;;;7.43;97.55;98012.16;5046624;28;20512;-80
2021/10/20 03:00:53;;;;;;;6.17;5.13;;;9.10;95.40;;;7.83;97.56;98086.91;5035057;28;20998;-79
2021/10/20 03:03:21;;;;;;;6.73;6.13;;;9.10;95.10;;;7.77;98.25;98079.59;5038660;28;20534;-79
2021/10/20 03:05:49;;;;;;;8.10;6.20;;;9.00;96.20;;;7.92;97.86;98072.25;5040354;28;20543;-79
2021/10/20 03:08:16;;;;;;;7.03;6.20;;;9.10;96.10;;;7.94;97.39;98072.88;5041007;28;20486;-79
2021/10/20 03:10:43;;;;;;;9.70;7.27;;;9.10;95.30;;;7.76;97.99;98065.34;5054939;28;20476;-79
2021/10/20 03:13:10;;;;;;;8.13;6.87;;;9.00;95.40;;;7.75;97.81;98060.97;5054194;28;20801;-79
2021/10/20 03:15:37;;;;;;;8.20;7.33;;;9.00;95.90;;;7.50;98.66;98056.03;5050968;28;20462;-79
2021/10/20 03:18:05;;;;;;;8.20;6.60;;;8.90;95.60;;;7.45;99.14;98073.75;5052409;28;20529;-80
2021/10/20 03:20:32;;;;;;;7.20;6.50;;;8.70;97.00;;;7.33;99.95;98057.34;5054954;28;20450;-81
2021/10/20 03:23:01;;;;;;;9.13;7.10;;;8.60;98.00;;;7.43;99.39;98071.28;5028409;28;20535;-80
2021/10/20 03:25:28;;;;;;;9.53;7.70;;;8.60;98.60;;;7.49;98.84;98066.97;5038420;28;20443;-80
2021/10/20 03:27:56;;;;;;;9.77;6.93;;;8.60;98.10;;;7.28;98.28;98031.03;5031949;28;20494;-80
2021/10/20 03:30:24;;;;;;;7.03;6.37;;;8.70;96.80;;;7.58;98.15;98065.81;5039460;28;20474;-80
2021/10/20 03:32:51;;;;;;;8.17;7.37;;;8.70;96.20;;;7.63;98.05;98071.44;5038943;28;20657;-80
2021/10/20 03:35:19;;;;;;;7.33;6.40;;;8.80;96.30;;;6.76;98.48;97939.88;5037049;28;20455;-80
2021/10/20 03:37:47;;;;;;;7.47;6.70;;;8.80;95.60;;;7.32;98.98;98061.88;5036948;28;20451;-79
2021/10/20 03:40:16;;;;;;;7.53;6.73;;;8.60;95.70;;;7.17;100.00;98061.09;5040340;28;20973;-79
2021/10/20 03:42:43;;;;;;;7.63;6.90;;;8.50;98.30;;;6.93;100.00;98028.25;5039215;28;20487;-80
2021/10/20 03:45:12;;;;;;;10.60;8.20;;;8.40;99.90;;;6.86;100.00;98013.91;5036657;28;20505;-78
2021/10/20 03:47:40;;;;;;;8.93;7.30;;;8.30;99.90;;;7.29;100.00;98037.25;5038166;28;20550;-79
2021/10/20 03:50:09;;;;;;;7.60;6.90;;;8.40;99.90;;;7.28;100.00;98032.88;5032571;28;20513;-79
2021/10/20 03:52:36;;;;;;;9.13;7.33;;;8.40;99.90;;;7.42;100.00;98028.47;5039485;28;20538;-78
2021/10/20 03:55:05;;;;;;;8.00;7.20;;;8.50;99.90;;;7.49;99.68;98027.47;5036785;28;20509;-79
2021/10/20 03:57:36;;;;;;;8.63;7.73;;;8.60;98.70;;;7.45;99.34;98015.47;5038053;28;20541;-79
2021/10/20 04:00:06;;;;;;;8.70;6.97;;;8.70;97.30;;;7.28;98.56;97969.22;5030690;28;21005;-78
2021/10/20 04:02:35;;;;;;;9.03;8.20;;;8.70;96.50;;;7.41;98.63;97986.47;5040027;28;20554;-79
2021/10/20 04:05:02;;;;;;;7.20;6.50;;;8.80;96.00;;;7.45;98.19;97987.75;5045166;28;20459;-77
2021/10/20 04:07:29;;;;;;;10.50;7.23;;;8.80;95.80;;;7.61;97.94;98008.94;5042451;28;20457;-79
2021/10/20 04:09:57;;;;;;;8.60;7.67;;;8.90;95.40;;;7.59;98.19;98008.31;5045998;28;20837;-80
2021/10/20 04:12:24;;;;;;;8.10;7.03;;;8.90;95.30;;;7.37;98.08;97976.13;5050866;28;20477;-80
2021/10/20 04:14:57;;;;;;;8.70;7.83;;;8.80;95.50;;;7.48;98.49;98011.53;5046300;28;20453;-81
2021/10/20 04:17:24;;;;;;;8.53;7.33;;;8.80;95.60;;;7.23;98.48;97963.63;5071097;28;20483;-79
2021/10/20 04:19:51;;;;;;;14.90;8.33;;;8.80;96.00;;;7.42;99.14;98005.09;5042750;28;20458;-81
2021/10/20 04:22:19;;;;;;;7.90;6.97;;;8.70;95.80;;;7.07;98.59;97944.06;5046873;28;20490;-82
2021/10/20 04:24:46;;;;;;;9.43;7.17;;;8.70;96.40;;;7.01;98.66;97952.88;5048128;28;20533;-80
2021/10/20 04:27:13;;;;;;;8.27;7.50;;;8.60;95.90;;;7.40;98.85;97991.00;5043433;28;20972;-81
2021/10/20 04:29:40;;;;;;;8.53;7.70;;;8.60;97.10;;;7.40;99.02;98000.94;5047701;28;20478;-80
2021/10/20 04:32:09;;;;;;;10.17;8.80;;;8.60;96.70;;;7.28;98.73;97993.41;5045879;28;20478;-81
2021/10/20 04:34:36;;;;;;;9.90;8.53;;;8.60;96.30;;;7.21;99.50;98000.59;5024431;28;20454;-80
2021/10/20 04:37:04;;;;;;;8.90;7.57;;;8.50;96.90;;;7.20;99.22;98001.59;5044582;28;20446;-80
2021/10/20 04:39:35;;;;;;;10.37;7.67;;;8.40;97.20;;;7.12;98.68;97980.25;5052106;28;20478;-84
2021/10/20 04:42:05;;;;;;;9.20;7.73;;;8.50;96.70;;;7.18;99.07;97995.59;5055294;28;20435;-80
2021/10/20 04:44:33;;;;;;;9.30;7.83;;;8.40;96.40;;;7.09;98.82;97995.75;5054888;28;20434;-80
2021/10/20 04:47:02;;;;;;;11.00;8.30;;;8.40;96.70;;;7.05;99.16;97989.09;5055180;28;20455;-80
2021/10/20 04:49:32;;;;;;;9.60;8.60;;;8.40;96.70;;;7.05;99.13;97990.94;5051766;28;20497;-80
2021/10/20 04:51:59;;;;;;;9.17;7.93;;;8.30;96.80;;;6.94;99.66;97992.31;5049336;28;20508;-80
2021/10/20 04:54:26;;;;;;;8.53;7.70;;;8.20;97.90;;;6.65;99.91;97945.75;5050559;28;20472;-79
2021/10/20 04:56:53;;;;;;;9.53;8.10;;;8.10;98.30;;;6.56;100.00;97928.94;5046206;28;20455;-80
2021/10/20 04:59:21;;;;;;;10.37;8.87;;;8.10;98.70;;;6.87;99.81;97978.81;5049827;28;20443;-80
2021/10/20 05:01:48;;;;;;;9.10;8.20;;;8.10;99.00;;;6.72;100.00;97954.69;5052116;28;20458;-81
2021/10/20 05:04:16;;;;;;;11.93;10.60;;;8.10;99.90;;;6.86;100.00;97968.25;5048551;28;20470;-82
2021/10/20 05:06:44;;;;;;;11.33;9.20;;;8.10;99.90;;;6.73;100.00;97929.50;5042240;28;21143;-79
2021/10/20 05:09:12;;;;;;;13.43;10.27;;;8.10;99.90;;;6.57;100.00;97941.34;5039294;28;20490;-79
2021/10/20 05:11:40;;;;;;;9.83;8.93;;;8.00;99.90;;;6.62;100.00;97941.59;5039190;28;20462;-79
2021/10/20 05:14:07;;;;;;;9.20;8.40;;;8.00;99.90;;;6.49;100.00;97920.84;5035213;28;20497;-79
2021/10/20 05:16:34;;;;;;;9.80;8.80;;;8.00;99.90;;;6.80;100.00;97949.22;5040912;28;20481;-78
2021/10/20 05:19:01;;;;;;;10.00;8.97;;;8.00;99.90;;;6.91;100.00;97945.16;5037486;28;20500;-77
2021/10/20 05:21:29;;;;;;;9.87;8.77;;;8.10;99.90;;;6.79;100.00;97954.75;5035723;28;20490;-75
2021/10/20 05:23:58;;;;;;;10.53;9.50;;;8.10;99.90;;;6.51;100.00;97926.84;5032434;28;20560;-73
2021/10/20 05:26:25;;;;;;;10.40;9.40;;;8.00;99.90;;;6.60;100.00;97926.72;5031167;28;21144;-74
2021/10/20 05:28:52;;;;;;;9.50;8.60;;;7.90;99.90;;;6.60;100.00;97937.47;5031694;28;20513;-74
2021/10/20 05:31:19;;;;;;;11.30;9.33;;;7.90;99.90;;;6.64;100.00;97946.78;5033112;28;20645;-75
2021/10/20 05:33:47;;;;;;;10.70;9.60;;;7.90;99.90;;;6.64;100.00;97946.78;5031393;28;20529;-73
2021/10/20 05:36:14;;;;;;;12.30;9.73;;;7.90;99.90;;;6.55;100.00;97955.97;5033456;28;20489;-77
2021/10/20 05:38:41;;;;;;;10.20;9.20;;;7.80;99.90;;;6.50;100.00;97941.28;5035813;28;20541;-77
2021/10/20 05:41:09;;;;;;;11.10;9.97;;;7.70;99.90;;;6.71;100.00;97942.28;5030372;28;21024;-76
2021/10/20 05:43:36;;;;;;;11.23;10.20;;;7.80;99.90;;;6.69;100.00;97925.56;5031189;28;20668;-75
2021/10/20 05:46:03;;;;;;;10.47;9.47;;;7.90;99.90;;;6.77;100.00;97938.00;5032938;28;20550;-75
2021/10/20 05:48:30;;;;;;;10.73;9.73;;;8.00;99.90;;;6.67;100.00;97946.41;5036037;28;20536;-76
2021/10/20 05:50:57;;;;;;;10.70;9.37;;;7.90;99.90;;;6.61;100.00;97931.88;5036102;28;20478;-76
2021/10/20 05:53:24;;;;;;;10.40;9.40;;;7.90;99.90;;;6.65;100.00;97932.34;5034433;28;20880;-77
2021/10/20 05:55:51;;;;;;;11.17;10.10;;;7.80;99.90;;;6.64;100.00;97944.91;5033140;28;20638;-77
2021/10/20 05:58:19;;;;;;;10.80;9.80;;;7.90;99.90;;;6.69;100.00;97943.53;5032207;28;20554;-77
2021/10/20 06:00:46;;;;;;;11.20;10.00;;;7.90;99.90;;;6.84;100.00;97938.06;5029567;28;20872;-77
2021/10/20 06:03:13;;;;;;;12.90;11.50;;;8.00;99.90;;;6.67;100.00;97930.28;5036475;28;20560;-77
2021/10/20 06:05:41;;;;;;;11.23;10.20;;;7.90;99.90;;;6.75;100.00;97937.38;5035814;28;20474;-76
2021/10/20 06:08:08;;;;;;;11.80;10.00;;;8.00;99.90;;;6.78;100.00;97948.56;5055943;28;20458;-77
2021/10/20 06:10:35;;;;;;;12.07;10.90;;;8.00;99.90;;;6.86;100.00;97941.41;5036928;28;20977;-77
2021/10/20 06:13:03;;;;;;;11.93;10.67;;;8.00;99.90;;;6.98;100.00;97944.41;5046158;28;20486;-78
2021/10/20 06:15:35;;;;;;;13.67;11.13;;;8.10;99.90;;;6.97;100.00;97932.81;5037994;28;20461;-78
2021/10/20 06:18:02;;;;;;;15.80;10.57;;;8.20;99.90;;;7.13;100.00;97931.72;5038763;28;20549;-79
2021/10/20 06:20:29;;;;;;;14.47;12.97;;;8.30;99.90;;;7.21;99.47;97941.47;5036685;28;20462;-78
2021/10/20 06:22:56;;;;;;;15.90;10.67;;;8.40;98.20;;;7.18;99.62;97929.25;5036189;28;20886;-78
2021/10/20 06:25:24;;;;;;;12.23;10.93;;;8.40;98.10;;;7.13;98.53;97918.28;5034107;28;20451;-77
2021/10/20 06:27:51;;;;;;;10.40;9.40;;;8.40;97.20;;;7.39;98.50;97935.59;5047392;28;20592;-79
2021/10/20 06:30:18;;;;;;;10.60;9.50;;;8.60;96.10;;;7.41;98.00;97938.09;5036043;28;20489;-78
2021/10/20 06:32:46;;;;;;;11.73;8.50;;;8.60;95.80;;;7.30;99.35;97942.97;5037705;28;21237;-77
2021/10/20 06:35:13;;;;;;;9.93;8.90;;;8.60;96.30;;;7.14;98.17;97894.91;5034099;28;20454;-78
2021/10/20 06:37:45;;;;;;;11.07;9.53;;;8.60;96.20;;;7.12;97.70;97887.03;5033590;28;20446;-78
2021/10/20 06:40:13;;;;;;;11.63;8.17;;;8.60;95.30;;;7.46;96.87;97923.03;5031185;28;20513;-78
2021/10/20 06:42:40;;;;;;;9.63;8.57;;;8.70;94.40;;;7.22;96.16;97882.16;5034250;28;20492;-77
2021/10/20 06:45:08;;;;;;;10.80;9.00;;;8.80;93.60;;;7.60;96.09;97913.19;5040232;28;20498;-77
2021/10/20 06:47:35;;;;;;;9.73;7.97;;;8.90;93.80;;;7.71;95.75;97921.72;5035163;28;20545;-71
2021/10/20 06:50:05;;;;;;;8.97;8.03;;;8.90;93.40;;;7.71;95.89;97929.78;5033119;28;20973;-77
2021/10/20 06:52:33;;;;;;;9.43;8.43;;;8.90;93.20;;;7.84;95.25;97935.22;5031308;28;20517;-75
2021/10/20 06:55:00;;;;;;;10.43;9.37;;;9.00;92.90;;;7.86;95.09;97935.00;5018670;28;20512;-74
2021/10/20 06:57:27;;;;;;;15.97;8.63;;;9.10;92.70;;;8.00;95.67;97941.31;5033367;28;20462;-76
2021/10/20 06:59:54;;;;;;;10.43;8.77;;;9.10;93.30;;;8.07;94.16;97929.53;5038069;28;20455;-76
2021/10/20 07:02:22;;;;;;;10.63;8.20;;;9.20;92.50;;;8.14;94.44;97934.09;5017915;28;20459;-76
2021/10/20 07:04:49;;;;;;;10.03;8.03;;;9.30;92.30;;;8.22;92.54;97926.66;5030903;28;21035;-76
2021/10/20 07:07:17;;;;;;;9.17;8.07;;;9.40;91.30;;;8.38;92.05;97927.34;5029650;28;20451;-79
2021/10/20 07:09:44;;;;;;;8.83;7.70;;;9.50;90.80;;;8.42;91.72;97922.38;5034541;28;21021;-78
2021/10/20 07:12:11;;;;;;;10.53;7.73;;;9.60;90.60;;;8.52;91.98;97924.69;5031872;28;20973;-77
2021/10/20 07:14:38;;;;;;;10.67;7.93;;;9.70;90.80;;;8.46;91.41;97916.38;5034572;28;20494;-77
2021/10/20 07:17:08;;;;;;;8.37;7.57;;;9.70;90.10;;;8.83;90.72;97926.81;5032199;28;20458;-77
2021/10/20 07:19:38;;;;;;;8.20;7.40;;;9.90;90.10;;;8.72;90.29;97928.28;5029443;28;20613;-78
2021/10/20 07:22:06;;;;;;;7.67;6.97;;;10.00;87.70;;;8.86;89.29;97928.25;5037633;28;20459;-78
2021/10/20 07:24:35;;;;;;;9.37;7.20;;;10.00;87.90;;;8.91;89.29;97909.63;5034360;28;21055;-79
2021/10/20 07:27:03;;;;;;;8.30;7.50;;;10.10;87.30;;;9.10;88.84;97928.69;5026822;28;20494;-76
2021/10/20 07:29:30;;;;;;;8.90;7.60;;;10.20;86.70;;;9.19;87.87;97924.75;5032162;28;20474;-77
2021/10/20 07:31:57;;;;;;;7.43;6.73;;;10.30;85.90;;;9.23;87.48;97900.88;5011666;28;20546;-77
2021/10/20 07:34:24;;;;;;;10.33;7.20;;;10.50;85.70;;;9.40;87.12;97914.75;5029014;28;20542;-76
2021/10/20 07:36:52;;;;;;;10.80;6.93;;;10.50;85.20;;;9.44;87.24;97913.28;5031034;28;20520;-79
2021/10/20 07:39:19;;;;;;;9.23;7.13;;;10.60;84.80;;;9.64;86.64;97905.16;5032389;28;20481;-76
2021/10/20 07:41:48;;;;;;;7.90;5.93;;;10.70;84.40;;;9.66;86.39;97907.66;5029240;28;20537;-77
2021/10/20 07:44:15;;;;;;;7.77;6.97;;;10.80;83.50;;;9.73;85.37;97897.66;5023519;28;20454;-78
2021/10/20 07:46:43;;;;;;;7.27;6.57;;;10.90;83.10;;;9.78;85.54;97900.53;5026645;28;20462;-76
2021/10/20 07:49:10;;;;;;;7.80;7.10;;;11.00;83.00;;;10.06;84.36;97893.97;5030912;28;20442;-76
2021/10/20 07:51:38;;;;;;;9.37;7.60;;;11.10;82.90;;;10.05;82.76;97873.44;5032880;28;20963;-77
2021/10/20 07:54:05;;;;;;;7.20;6.50;;;11.30;81.70;;;10.26;83.33;97898.47;5026596;28;20721;-76
2021/10/20 07:56:33;;;;;;;8.43;6.53;;;11.40;81.30;;;10.42;82.73;97897.16;5025493;28;20541;-77
2021/10/20 07:59:04;;;;;;;7.03;6.33;;;11.50;81.40;;;10.54;82.27;97895.41;5030448;28;20449;-78
2021/10/20 08:01:31;;;;;;;6.83;6.23;;;11.60;80.30;;;10.73;81.35;97899.03;5035525;28;20462;-76
2021/10/20 08:03:58;;;;;;;7.17;6.43;;;11.80;80.00;;;10.70;81.63;97899.47;5030126;28;20455;-79
2021/10/20 08:06:25;;;;;;;7.40;6.70;;;11.80;79.80;;;10.87;80.66;97882.72;5048302;28;20503;-78
2021/10/20 08:08:52;;;;;;;7.97;6.60;;;12.00;79.30;;;10.99;80.18;97899.03;5033898;28;20459;-76
2021/10/20 08:11:19;;;;;;;6.40;5.80;;;12.10;79.10;;;11.05;79.62;97887.31;5032921;28;20504;-76
2021/10/20 08:13:46;;;;;;;7.10;6.30;;;12.10;78.30;;;11.09;77.79;97885.00;5029722;28;20541;-78
2021/10/20 08:16:15;;;;;;;6.20;5.60;;;12.20;76.90;;;11.34;77.34;97874.97;5032051;28;20465;-78
2021/10/20 08:18:42;;;;;;;7.53;6.83;;;12.40;77.00;;;11.27;78.03;97882.31;5028513;28;20469;-76
2021/10/20 08:21:09;;;;;;;8.37;5.70;;;12.40;76.10;;;11.29;76.63;97874.81;5031666;28;20455;-75
2021/10/20 08:23:36;;;;;;;7.63;6.30;;;12.50;75.50;;;11.46;76.58;97876.97;5027889;28;20475;-75
2021/10/20 08:26:03;;;;;;;7.20;6.00;;;12.50;75.60;;;11.48;76.74;97877.56;5029982;28;20494;-78
2021/10/20 08:28:30;;;;;;;6.70;5.63;;;12.60;74.90;;;11.57;76.19;97876.19;5044478;28;20557;-74
2021/10/20 08:30:57;;;;;;;7.20;6.03;;;12.70;74.50;;;11.68;76.06;97852.97;5031337;28;20585;-75
2021/10/20 08:33:26;;;;;;;8.20;6.00;;;12.80;74.70;;;11.87;75.50;97852.94;5030970;28;20451;-72
2021/10/20 08:35:52;;;;;;;9.20;6.30;;;13.00;74.10;;;12.02;74.52;97855.28;5024793;28;20985;-72
2021/10/20 08:38:20;;;;;;;6.77;6.10;;;13.10;73.40;;;12.25;75.24;97859.16;5024535;28;20564;-76
2021/10/20 08:40:47;;;;;;;6.37;5.87;;;13.30;74.30;;;12.43;72.76;97861.78;5023950;28;20478;-74
2021/10/20 08:43:15;;;;;;;7.20;5.57;;;13.40;72.50;;;12.49;73.38;97853.78;5032026;28;20539;-73
2021/10/20 08:45:43;;;;;;;7.30;6.40;;;13.50;72.70;;;12.50;72.36;97839.16;5029471;28;20460;-73
2021/10/20 08:48:10;;;;;;;7.00;6.10;;;13.50;71.50;;;12.67;72.42;97837.47;5030947;28;20479;-72
2021/10/20 08:50:40;;;;;;;5.57;5.07;;;13.70;71.80;;;12.75;71.97;97831.69;5027620;28;20494;-75
2021/10/20 08:53:09;;;;;;;11.90;5.97;;;13.70;71.50;;;12.92;72.08;97830.19;5028541;28;20457;-74
2021/10/20 08:55:36;;;;;;;5.63;5.10;;;13.90;71.60;;;13.08;71.42;97823.19;5030106;28;20489;-77
2021/10/20 08:58:03;;;;;;;6.80;6.10;;;14.10;71.00;;;13.31;70.95;97825.91;5032410;28;20462;-74
2021/10/20 09:00:30;;;;;;;6.37;5.77;;;14.30;70.90;;;13.28;70.14;97823.69;5033089;28;20976;-75
2021/10/20 09:02:57;;;;;;;5.63;5.13;;;14.30;70.10;;;13.67;68.74;97822.31;5030150;28;20515;-73
2021/10/20 09:05:27;;;;;;;5.10;4.70;;;14.50;69.60;;;13.57;67.69;97810.22;5028143;28;20463;-71
2021/10/20 09:07:58;;;;;;;6.47;5.13;;;14.60;68.20;;;13.71;67.14;97810.75;5026826;28;20628;-71
2021/10/20 09:10:27;;;;;;;5.07;4.67;;;14.70;67.60;;;13.82;66.30;97811.75;5025159;28;20537;-75
2021/10/20 09:12:55;;;;;;;6.00;5.40;;;14.80;67.00;;;14.01;65.66;97800.69;5026703;28;20452;-74
2021/10/20 09:15:25;;;;;;;5.40;4.90;;;15.00;66.40;;;14.31;64.25;97799.59;5024149;28;20973;-75
2021/10/20 09:17:57;;;;;;;5.90;4.77;;;15.20;65.50;;;14.17;64.31;97786.31;5031800;28;20983;-75
2021/10/20 09:20:30;;;;;;;5.60;5.10;;;15.30;64.80;;;14.50;63.22;97802.13;5032554;28;20458;-75
2021/10/20 09:23:07;;;;;;;5.40;4.70;;;15.40;64.10;;;14.49;63.59;97814.06;5028677;28;20504;-76
2021/10/20 09:25:40;;;;;;;5.43;4.93;;;15.50;64.40;;;14.69;63.29;97817.09;5030497;28;20595;-74
2021/10/20 09:28:10;;;;;;;6.00;4.80;;;15.60;64.50;;;14.84;63.16;97815.75;5028325;28;20459;-74
2021/10/20 09:30:40;;;;;;;6.03;4.40;;;15.70;64.00;;;14.97;61.54;97820.00;5026345;28;20572;-74
2021/10/20 09:33:08;;;;;;;5.40;4.90;;;16.00;63.10;;;15.20;61.96;97818.97;5029812;28;20620;-75
2021/10/20 09:35:36;;;;;;;5.13;4.73;;;16.10;63.60;;;15.01;61.37;97777.63;5031895;28;20454;-76
2021/10/20 09:38:06;;;;;;;4.90;4.50;;;16.30;63.00;;;15.54;60.39;97807.19;5031825;28;20561;-75
2021/10/20 09:40:42;;;;;;;5.57;4.97;;;16.40;62.20;;;15.52;58.59;97777.47;5028741;28;20470;-75
2021/10/20 09:43:12;;;;;;;9.30;5.03;;;16.60;60.90;;;15.68;59.17;97786.66;5044400;28;20447;-76
2021/10/20 09:45:41;;;;;;;5.40;4.90;;;16.60;61.00;;;15.67;58.49;97778.72;5028446;28;20537;-75
2021/10/20 09:48:17;;;;;;;5.00;4.37;;;16.60;60.40;;;15.49;59.38;97780.72;5031243;28;20219;-76
2021/10/20 09:51:04;;;;;;;5.73;4.77;;;16.50;60.40;;;15.68;58.00;97761.31;5030786;28;21111;-75
2021/10/20 09:53:35;;;;;;;5.80;5.00;;;16.50;60.10;;;15.65;58.79;97754.50;5026427;28;20466;-76
2021/10/20 09:56:07;;;;;;;5.00;4.50;;;16.70;60.10;;;15.80;58.32;97751.09;5028870;28;20198;-75
2021/10/20 09:58:34;;;;;;;5.00;4.10;;;16.60;59.80;;;15.83;57.38;97745.13;5027156;28;20532;-77
2021/10/20 10:01:02;;;;;;;4.90;4.40;;;16.80;59.40;;;15.91;57.77;97751.25;5030348;28;20478;-76
2021/10/20 10:03:30;;;;;;;5.13;4.40;;;16.80;59.60;;;15.85;58.01;97747.63;5029530;28;20458;-76
2021/10/20 10:05:57;;;;;;;5.00;4.60;;;16.80;59.80;;;15.88;57.82;97740.84;5028889;28;20577;-76
2021/10/20 10:08:25;;;;;;;4.57;4.17;;;16.80;59.50;;;15.91;57.68;97751.25;5030600;28;20540;-76
2021/10/20 10:10:53;;;;;;;5.07;4.40;;;16.90;59.20;;;15.85;58.22;97737.56;5032542;28;20558;-75
2021/10/20 10:13:26;;;;;;;5.43;4.13;;;16.90;59.40;;;15.67;58.45;97724.28;5034112;28;20461;-78
2021/10/20 10:15:55;;;;;;;10.97;4.67;;;16.80;59.40;;;15.62;58.08;97706.00;5029732;28;20545;-75
2021/10/20 10:18:23;;;;;;;5.93;4.70;;;16.60;59.20;;;15.71;57.86;97703.63;5030192;28;20534;-74
2021/10/20 10:20:50;;;;;;;5.73;5.13;;;16.70;59.00;;;16.02;57.59;97711.31;5032650;28;20520;-76
2021/10/20 10:23:23;;;;;;;7.10;4.03;;;16.80;59.10;;;16.07;57.33;97714.91;5033039;28;20458;-76
2021/10/20 10:26:01;;;;;;;5.50;4.23;;;17.00;59.60;;;16.33;56.44;97687.03;5031137;28;20502;-75
2021/10/20 10:28:31;;;;;;;5.10;4.60;;;17.30;58.70;;;16.73;55.59;97685.66;5034381;28;20474;-75